createdAt,value
2018-02-23T00:00:22.643Z,91682.78
2018-02-23T00:01:11.693Z,91683.92
2018-02-23T00:02:01.029Z,91682.94
2018-02-23T00:02:50.098Z,91686.40
2018-02-23T00:03:39.150Z,91684.80
2018-02-23T00:04:28.328Z,91684.88
2018-02-23T00:05:17.393Z,91683.81
2018-02-23T00:06:06.441Z,91683.63
2018-02-23T00:06:55.528Z,91688.44
2018-02-23T00:07:47.450Z,91690.05
2018-02-23T00:08:36.509Z,91688.91
2018-02-23T00:09:25.595Z,91690.23
2018-02-23T00:10:14.718Z,91689.44
2018-02-23T00:11:03.759Z,91691.20
2018-02-23T00:11:52.869Z,91689.05
2018-02-23T00:12:41.981Z,91684.77
2018-02-23T00:13:31.024Z,91689.84
2018-02-23T00:14:20.093Z,91690.64
2018-02-23T00:15:09.176Z,91695.27
2018-02-23T00:15:58.252Z,91691.45
2018-02-23T00:16:47.289Z,91690.92
2018-02-23T00:17:36.330Z,91685.75
2018-02-23T00:18:25.381Z,91690.38
2018-02-23T00:19:14.427Z,91689.95
2018-02-23T00:20:03.522Z,91688.80
2018-02-23T00:20:52.568Z,91692.46
2018-02-23T00:21:41.962Z,91690.68
2018-02-23T00:22:42.268Z,91692.36
2018-02-23T00:23:31.315Z,91694.74
2018-02-23T00:24:20.381Z,91690.56
2018-02-23T00:25:09.427Z,91690.70
2018-02-23T00:25:58.493Z,91687.71
2018-02-23T00:26:47.572Z,91688.09
2018-02-23T00:27:36.614Z,91683.56
2018-02-23T00:28:25.684Z,91684.44
2018-02-23T00:29:14.734Z,91681.59
2018-02-23T00:30:03.804Z,91684.33
2018-02-23T00:30:52.860Z,91684.52
2018-02-23T00:31:41.899Z,91682.58
2018-02-23T00:32:31.028Z,91681.34
2018-02-23T00:33:20.071Z,91679.59
2018-02-23T00:34:09.122Z,91679.77
2018-02-23T00:34:58.168Z,91683.31
2018-02-23T00:35:47.286Z,91680.03
2018-02-23T00:36:36.318Z,91676.77
2018-02-23T00:37:25.372Z,91678.16
2018-02-23T00:38:14.495Z,91678.35
2018-02-23T00:39:03.573Z,91674.44
2018-02-23T00:39:52.610Z,91678.62
2018-02-23T00:40:41.697Z,91672.66
2018-02-23T00:41:30.738Z,91674.28
2018-02-23T00:42:19.793Z,91674.98
2018-02-23T00:43:08.895Z,91669.83
2018-02-23T00:43:58.156Z,91664.41
2018-02-23T00:44:48.176Z,91666.81
2018-02-23T00:45:37.231Z,91674.72
2018-02-23T00:46:26.282Z,91670.53
2018-02-23T00:47:15.316Z,91667.17
2018-02-23T00:48:04.432Z,91668.50
2018-02-23T00:48:53.487Z,91669.48
2018-02-23T00:49:42.535Z,91667.35
2018-02-23T00:50:31.610Z,91659.45
2018-02-23T00:51:20.694Z,91658.56
2018-02-23T00:52:09.753Z,91660.06
2018-02-23T00:52:58.802Z,91654.91
2018-02-23T00:53:47.998Z,91659.01
2018-02-23T00:54:37.046Z,91657.14
2018-02-23T00:55:26.103Z,91656.95
2018-02-23T00:56:15.146Z,91657.84
2018-02-23T00:57:04.200Z,91658.73
2018-02-23T00:57:53.246Z,91660.08
2018-02-23T00:58:42.303Z,91655.37
2018-02-23T00:59:31.564Z,91657.24
2018-02-23T01:00:20.647Z,91660.18
2018-02-23T01:01:09.726Z,91659.47
2018-02-23T01:01:58.766Z,91653.06
2018-02-23T01:02:47.801Z,91660.27
2018-02-23T01:03:36.834Z,91658.23
2018-02-23T01:04:25.890Z,91661.51
2018-02-23T01:05:14.934Z,91658.48
2018-02-23T01:06:04.029Z,91659.47
2018-02-23T01:06:53.076Z,91659.10
2018-02-23T01:07:42.130Z,91651.11
2018-02-23T01:08:31.163Z,91652.97
2018-02-23T01:09:20.222Z,91649.34
2018-02-23T01:10:09.263Z,91652.37
2018-02-23T01:10:58.312Z,91652.09
2018-02-23T01:11:47.415Z,91654.58
2018-02-23T01:12:36.474Z,91647.56
2018-02-23T01:13:25.556Z,91653.44
2018-02-23T01:14:14.635Z,91658.55
2018-02-23T01:15:03.814Z,91653.92
2018-02-23T01:15:52.860Z,91653.27
2018-02-23T01:16:41.902Z,91650.07
2018-02-23T01:17:30.965Z,91648.20
2018-02-23T01:18:20.046Z,91648.64
2018-02-23T01:19:09.097Z,91648.73
2018-02-23T01:19:58.175Z,91650.42
2018-02-23T01:20:47.266Z,91652.83
2018-02-23T01:21:36.324Z,91652.41
2018-02-23T01:22:25.782Z,91651.12
2018-02-23T01:23:14.821Z,91653.16
2018-02-23T01:24:03.857Z,91654.31
2018-02-23T01:24:52.920Z,91655.28
2018-02-23T01:25:41.988Z,91659.38
2018-02-23T01:26:34.110Z,91657.50
2018-02-23T01:27:23.139Z,91653.23
2018-02-23T01:28:12.192Z,91653.14
2018-02-23T01:29:01.239Z,91653.16
2018-02-23T01:29:50.286Z,91659.12
2018-02-23T01:30:40.262Z,91651.12
2018-02-23T01:31:29.312Z,91654.72
2018-02-23T01:32:18.408Z,91651.41
2018-02-23T01:33:07.510Z,91651.41
2018-02-23T01:33:56.599Z,91656.90
2018-02-23T01:34:45.674Z,91650.16
2018-02-23T01:35:34.844Z,91651.48
2018-02-23T01:36:23.891Z,91649.63
2018-02-23T01:37:12.935Z,91657.56
2018-02-23T01:38:01.988Z,91655.35
2018-02-23T01:38:51.026Z,91649.84
2018-02-23T01:39:40.062Z,91660.32
2018-02-23T01:40:29.109Z,91656.59
2018-02-23T01:41:18.219Z,91650.10
2018-02-23T01:42:07.267Z,91650.55
2018-02-23T01:42:56.316Z,91649.93
2018-02-23T01:43:45.371Z,91650.92
2018-02-23T01:44:34.420Z,91648.70
2018-02-23T01:45:23.470Z,91652.87
2018-02-23T01:46:12.526Z,91645.49
2018-02-23T01:47:01.624Z,91648.70
2018-02-23T01:47:50.687Z,91647.55
2018-02-23T01:48:39.740Z,91648.61
2018-02-23T01:49:28.779Z,91653.23
2018-02-23T01:50:17.811Z,91651.28
2018-02-23T01:51:06.851Z,91654.30
2018-02-23T01:51:55.898Z,91647.98
2018-02-23T01:52:45.214Z,91650.12
2018-02-23T01:53:34.259Z,91649.59
2018-02-23T01:54:23.309Z,91653.84
2018-02-23T01:55:12.346Z,91646.64
2018-02-23T01:56:01.448Z,91651.61
2018-02-23T01:56:50.516Z,91649.03
2018-02-23T01:57:39.616Z,91649.53
2018-02-23T01:58:28.685Z,91647.40
2018-02-23T01:59:17.772Z,91650.68
2018-02-23T02:00:06.843Z,91644.55
2018-02-23T02:00:55.925Z,91647.29
2018-02-23T02:01:45.094Z,91648.70
2018-02-23T02:02:34.140Z,91646.77
2018-02-23T02:03:23.205Z,91643.92
2018-02-23T02:04:12.247Z,91646.49
2018-02-23T02:05:01.288Z,91648.35
2018-02-23T02:05:50.333Z,91640.71
2018-02-23T02:06:39.405Z,91649.42
2018-02-23T02:07:28.497Z,91643.84
2018-02-23T02:08:17.549Z,91644.98
2018-02-23T02:09:06.616Z,91643.91
2018-02-23T02:09:55.663Z,91644.16
2018-02-23T02:10:44.712Z,91643.46
2018-02-23T02:11:33.782Z,91642.48
2018-02-23T02:12:22.828Z,91641.24
2018-02-23T02:13:12.206Z,91642.84
2018-02-23T02:14:01.245Z,91640.17
2018-02-23T02:14:50.305Z,91641.88
2018-02-23T02:15:39.387Z,91643.31
2018-02-23T02:16:28.427Z,91641.18
2018-02-23T02:17:17.490Z,91641.00
2018-02-23T02:18:06.538Z,91640.37
2018-02-23T02:18:55.598Z,91641.60
2018-02-23T02:19:44.654Z,91640.09
2018-02-23T02:20:33.732Z,91641.33
2018-02-23T02:21:22.887Z,91641.95
2018-02-23T02:22:11.981Z,91635.30
2018-02-23T02:23:01.035Z,91637.78
2018-02-23T02:23:50.084Z,91641.95
2018-02-23T02:24:39.137Z,91641.42
2018-02-23T02:25:28.184Z,91643.04
2018-02-23T02:26:17.247Z,91644.23
2018-02-23T02:27:06.372Z,91644.52
2018-02-23T02:27:55.432Z,91644.87
2018-02-23T02:28:44.489Z,91641.41
2018-02-23T02:29:33.532Z,91639.89
2018-02-23T02:30:25.104Z,91644.59
2018-02-23T02:31:14.152Z,91644.20
2018-02-23T02:32:03.192Z,91643.84
2018-02-23T02:32:52.466Z,91642.24
2018-02-23T02:33:41.523Z,91639.39
2018-02-23T02:34:30.630Z,91646.22
2018-02-23T02:35:19.682Z,91639.91
2018-02-23T02:36:08.751Z,91644.02
2018-02-23T02:36:57.801Z,91637.80
2018-02-23T02:37:46.849Z,91638.06
2018-02-23T02:38:35.938Z,91640.20
2018-02-23T02:39:24.989Z,91645.31
2018-02-23T02:40:14.106Z,91640.78
2018-02-23T02:41:03.176Z,91640.96
2018-02-23T02:41:52.243Z,91643.80
2018-02-23T02:42:41.364Z,91645.75
2018-02-23T02:43:30.413Z,91640.42
2018-02-23T02:44:19.530Z,91643.05
2018-02-23T02:45:08.585Z,91648.73
2018-02-23T02:45:57.638Z,91652.91
2018-02-23T02:46:46.717Z,91644.34
2018-02-23T02:47:35.783Z,91646.03
2018-02-23T02:48:25.190Z,91639.73
2018-02-23T02:49:14.236Z,91645.05
2018-02-23T02:50:03.293Z,91648.06
2018-02-23T02:50:52.351Z,91641.93
2018-02-23T02:51:41.411Z,91640.59
2018-02-23T02:52:30.541Z,91639.08
2018-02-23T02:53:19.602Z,91639.31
2018-02-23T02:54:08.657Z,91635.09
2018-02-23T02:54:57.704Z,91641.13
2018-02-23T02:55:46.749Z,91636.07
2018-02-23T02:56:35.794Z,91636.88
2018-02-23T02:57:24.840Z,91645.41
2018-02-23T02:58:13.969Z,91645.84
2018-02-23T02:59:03.017Z,91644.96
2018-02-23T02:59:52.074Z,91638.92
2018-02-23T03:00:41.112Z,91645.58
2018-02-23T03:01:30.165Z,91648.79
2018-02-23T03:02:19.242Z,91644.70
2018-02-23T03:03:08.294Z,91646.91
2018-02-23T03:03:57.581Z,91644.69
2018-02-23T03:04:46.631Z,91640.95
2018-02-23T03:05:35.729Z,91641.30
2018-02-23T03:06:24.738Z,91635.72
2018-02-23T03:07:13.797Z,91643.45
2018-02-23T03:08:02.854Z,91639.20
2018-02-23T03:08:51.915Z,91644.52
2018-02-23T03:09:41.029Z,91648.25
2018-02-23T03:10:30.089Z,91651.09
2018-02-23T03:11:19.129Z,91649.15
2018-02-23T03:12:08.172Z,91645.94
2018-02-23T03:12:57.229Z,91644.78
2018-02-23T03:13:46.365Z,91643.90
2018-02-23T03:14:38.109Z,91647.72
2018-02-23T03:15:27.152Z,91643.72
2018-02-23T03:16:16.202Z,91649.22
2018-02-23T03:17:05.251Z,91643.91
2018-02-23T03:17:54.306Z,91653.77
2018-02-23T03:18:43.360Z,91652.17
2018-02-23T03:19:32.705Z,91655.45
2018-02-23T03:20:21.745Z,91654.84
2018-02-23T03:21:10.788Z,91653.14
2018-02-23T03:21:59.835Z,91649.33
2018-02-23T03:22:48.931Z,91649.14
2018-02-23T03:23:38.008Z,91650.56
2018-02-23T03:24:27.077Z,91647.01
2018-02-23T03:25:16.132Z,91651.09
2018-02-23T03:26:05.189Z,91651.36
2018-02-23T03:26:54.236Z,91652.34
2018-02-23T03:27:43.289Z,91649.06
2018-02-23T03:28:32.390Z,91653.66
2018-02-23T03:29:21.441Z,91655.17
2018-02-23T03:30:10.498Z,91652.11
2018-02-23T03:31:01.485Z,91651.44
2018-02-23T03:31:50.837Z,91649.22
2018-02-23T03:32:39.933Z,91651.62
2018-02-23T03:33:28.985Z,91652.67
2018-02-23T03:34:18.130Z,91651.22
2018-02-23T03:35:07.173Z,91649.35
2018-02-23T03:35:56.219Z,91657.34
2018-02-23T03:36:45.259Z,91649.17
2018-02-23T03:37:34.314Z,91647.14
2018-02-23T03:38:23.374Z,91652.23
2018-02-23T03:39:12.420Z,91654.29
2018-02-23T03:40:01.491Z,91658.81
2018-02-23T03:40:50.550Z,91655.44
2018-02-23T03:41:39.636Z,91651.97
2018-02-23T03:42:28.709Z,91658.38
2018-02-23T03:43:17.756Z,91655.63
2018-02-23T03:44:06.798Z,91659.27
2018-02-23T03:44:56.920Z,91653.48
2018-02-23T03:45:46.008Z,91656.33
2018-02-23T03:46:35.060Z,91648.59
2018-02-23T03:47:24.146Z,91653.48
2018-02-23T03:48:13.191Z,91653.31
2018-02-23T03:49:02.240Z,91659.26
2018-02-23T03:49:51.284Z,91658.20
2018-02-23T03:50:40.322Z,91657.94
2018-02-23T03:51:29.539Z,91662.82
2018-02-23T03:52:18.634Z,91655.72
2018-02-23T03:53:07.666Z,91660.52
2018-02-23T03:53:56.716Z,91666.55
2018-02-23T03:54:45.780Z,91667.28
2018-02-23T03:55:34.831Z,91667.17
2018-02-23T03:56:23.867Z,91669.91
2018-02-23T03:57:13.025Z,91663.52
2018-02-23T03:58:02.084Z,91668.50
2018-02-23T03:58:51.145Z,91667.63
2018-02-23T03:59:40.191Z,91664.53
2018-02-23T04:00:29.234Z,91664.09
2018-02-23T04:01:18.709Z,91665.48
2018-02-23T04:02:07.761Z,91665.67
2018-02-23T04:02:56.838Z,91665.84
2018-02-23T04:03:45.888Z,91667.80
2018-02-23T04:04:34.920Z,91665.31
2018-02-23T04:05:23.961Z,91666.38
2018-02-23T04:06:13.013Z,91664.34
2018-02-23T04:07:02.066Z,91666.83
2018-02-23T04:07:51.107Z,91665.76
2018-02-23T04:08:40.386Z,91664.78
2018-02-23T04:09:29.444Z,91662.92
2018-02-23T04:10:18.493Z,91662.47
2018-02-23T04:11:07.550Z,91666.55
2018-02-23T04:11:56.615Z,91662.30
2018-02-23T04:12:45.654Z,91667.00
2018-02-23T04:13:34.696Z,91661.84
2018-02-23T04:14:23.755Z,91669.39
2018-02-23T04:15:12.809Z,91666.64
2018-02-23T04:16:01.843Z,91659.89
2018-02-23T04:16:50.899Z,91664.50
2018-02-23T04:17:39.995Z,91666.64
2018-02-23T04:18:29.051Z,91664.86
2018-02-23T04:19:18.129Z,91668.68
2018-02-23T04:20:07.167Z,91661.92
2018-02-23T04:20:56.299Z,91665.83
2018-02-23T04:21:45.351Z,91666.18
2018-02-23T04:22:34.554Z,91661.91
2018-02-23T04:23:23.592Z,91666.36
2018-02-23T04:24:12.646Z,91663.88
2018-02-23T04:25:01.693Z,91659.08
2018-02-23T04:25:50.736Z,91666.01
2018-02-23T04:26:39.855Z,91666.54
2018-02-23T04:27:28.907Z,91667.17
2018-02-23T04:28:17.951Z,91666.55
2018-02-23T04:29:06.993Z,91665.03
2018-02-23T04:29:56.036Z,91667.34
2018-02-23T04:30:45.093Z,91669.13
2018-02-23T04:31:34.181Z,91674.89
2018-02-23T04:32:23.683Z,91672.58
2018-02-23T04:33:12.714Z,91669.91
2018-02-23T04:34:01.746Z,91670.09
2018-02-23T04:34:50.860Z,91673.02
2018-02-23T04:35:39.928Z,91665.65
2018-02-23T04:36:28.970Z,91666.19
2018-02-23T04:37:18.012Z,91672.05
2018-02-23T04:38:07.077Z,91671.16
2018-02-23T04:38:56.218Z,91672.94
2018-02-23T04:39:45.284Z,91679.16
2018-02-23T04:40:34.362Z,91672.67
2018-02-23T04:41:23.424Z,91673.13
2018-02-23T04:42:12.475Z,91675.43
2018-02-23T04:43:01.503Z,91672.50
2018-02-23T04:43:50.563Z,91672.77
2018-02-23T04:44:39.654Z,91672.33
2018-02-23T04:45:28.695Z,91672.85
2018-02-23T04:46:17.748Z,91670.02
2018-02-23T04:47:06.927Z,91674.81
2018-02-23T04:47:55.969Z,91665.41
2018-02-23T04:48:45.036Z,91673.84
2018-02-23T04:49:34.242Z,91677.92
2018-02-23T04:50:23.320Z,91666.55
2018-02-23T04:51:12.374Z,91672.95
2018-02-23T04:52:01.425Z,91676.06
2018-02-23T04:52:50.474Z,91682.00
2018-02-23T04:53:39.814Z,91680.77
2018-02-23T04:54:28.872Z,91675.97
2018-02-23T04:55:18.280Z,91674.19
2018-02-23T04:56:07.377Z,91673.04
2018-02-23T04:56:56.462Z,91675.97
2018-02-23T04:57:45.513Z,91681.30
2018-02-23T04:58:34.551Z,91673.03
2018-02-23T04:59:23.604Z,91667.80
2018-02-23T05:00:12.697Z,91670.11
2018-02-23T05:01:01.803Z,91674.72
2018-02-23T05:01:50.860Z,91676.68
2018-02-23T05:02:39.932Z,91669.58
2018-02-23T05:03:31.970Z,91671.00
2018-02-23T05:04:21.006Z,91672.51
2018-02-23T05:05:10.143Z,91667.53
2018-02-23T05:05:59.183Z,91668.69
2018-02-23T05:06:48.225Z,91664.42
2018-02-23T05:07:37.277Z,91666.91
2018-02-23T05:08:26.358Z,91669.22
2018-02-23T05:09:15.405Z,91667.09
2018-02-23T05:10:04.506Z,91664.25
2018-02-23T05:10:53.561Z,91673.03
2018-02-23T05:11:42.798Z,91669.05
2018-02-23T05:12:31.856Z,91673.04
2018-02-23T05:13:20.917Z,91674.19
2018-02-23T05:14:09.963Z,91676.68
2018-02-23T05:14:59.006Z,91677.21
2018-02-23T05:15:48.250Z,91675.79
2018-02-23T05:16:37.303Z,91675.70
2018-02-23T05:17:26.349Z,91673.66
2018-02-23T05:18:15.484Z,91676.77
2018-02-23T05:19:04.642Z,91676.14
2018-02-23T05:19:53.711Z,91674.38
2018-02-23T05:20:42.784Z,91678.98
2018-02-23T05:21:32.145Z,91672.86
2018-02-23T05:22:21.203Z,91673.22
2018-02-23T05:23:10.258Z,91672.95
2018-02-23T05:23:59.340Z,91677.92
2018-02-23T05:24:48.433Z,91676.31
2018-02-23T05:25:37.484Z,91675.60
2018-02-23T05:26:26.547Z,91678.27
2018-02-23T05:27:18.780Z,91677.11
2018-02-23T05:28:08.006Z,91678.63
2018-02-23T05:28:57.154Z,91682.19
2018-02-23T05:29:46.232Z,91683.87
2018-02-23T05:30:35.421Z,91684.31
2018-02-23T05:31:24.659Z,91683.34
2018-02-23T05:32:13.700Z,91685.47
2018-02-23T05:34:29.739Z,91689.37
2018-02-23T05:35:18.798Z,91691.86
2018-02-23T05:36:07.852Z,91698.15
2018-02-23T05:36:57.089Z,91694.00
2018-02-23T05:37:46.129Z,91693.18
2018-02-23T05:38:35.207Z,91693.36
2018-02-23T05:39:24.278Z,91696.03
2018-02-23T05:40:13.344Z,91697.89
2018-02-23T05:41:02.411Z,91697.09
2018-02-23T05:41:51.509Z,91694.61
2018-02-23T05:42:41.222Z,91696.21
2018-02-23T05:43:30.300Z,91697.19
2018-02-23T05:44:19.833Z,91699.59
2018-02-23T05:45:08.911Z,91708.20
2018-02-23T05:45:57.955Z,91703.67
2018-02-23T05:46:47.049Z,91710.15
2018-02-23T05:47:36.130Z,91706.59
2018-02-23T05:48:25.280Z,91709.17
2018-02-23T05:49:14.344Z,91710.23
2018-02-23T05:50:03.415Z,91713.44
2018-02-23T05:50:52.475Z,91717.97
2018-02-23T05:51:41.609Z,91712.46
2018-02-23T05:52:30.670Z,91716.63
2018-02-23T05:53:19.724Z,91714.33
2018-02-23T05:54:10.168Z,91718.32
2018-02-23T05:54:59.225Z,91714.50
2018-02-23T05:55:48.314Z,91716.98
2018-02-23T05:56:37.384Z,91714.15
2018-02-23T05:57:26.437Z,91718.59
2018-02-23T05:58:15.481Z,91715.39
2018-02-23T05:59:04.560Z,91715.36
2018-02-23T05:59:53.612Z,91712.52
2018-02-23T06:00:42.662Z,91713.39
2018-02-23T06:01:31.741Z,91720.95
2018-02-23T06:02:20.806Z,91720.86
2018-02-23T06:03:09.867Z,91718.73
2018-02-23T06:03:58.913Z,91720.54
2018-02-23T06:04:47.972Z,91718.67
2018-02-23T06:05:37.040Z,91718.23
2018-02-23T06:06:26.071Z,91720.45
2018-02-23T06:07:15.354Z,91722.73
2018-02-23T06:08:04.392Z,91715.27
2018-02-23T06:08:53.422Z,91719.80
2018-02-23T06:09:42.471Z,91719.92
2018-02-23T06:10:31.521Z,91719.73
2018-02-23T06:11:20.584Z,91718.59
2018-02-23T06:12:09.694Z,91726.94
2018-02-23T06:12:59.569Z,91720.98
2018-02-23T06:13:48.653Z,91727.64
2018-02-23T06:14:37.772Z,91724.80
2018-02-23T06:16:47.400Z,91731.17
2018-02-23T06:17:41.924Z,91731.87
2018-02-23T06:18:36.524Z,91734.27
2018-02-23T06:19:31.019Z,91734.09
2018-02-23T06:20:25.555Z,91732.41
2018-02-23T06:21:14.680Z,91730.10
2018-02-23T06:22:03.741Z,91733.47
2018-02-23T06:22:52.799Z,91731.52
2018-02-23T06:23:41.849Z,91731.52
2018-02-23T06:24:30.906Z,91734.54
2018-02-23T06:25:19.968Z,91734.81
2018-02-23T06:26:09.037Z,91739.28
2018-02-23T06:26:58.150Z,91744.08
2018-02-23T06:27:47.203Z,91740.61
2018-02-23T06:28:36.271Z,91744.79
2018-02-23T06:29:25.316Z,91744.97
2018-02-23T06:30:14.373Z,91738.04
2018-02-23T06:31:03.435Z,91738.30
2018-02-23T06:31:52.492Z,91741.06
2018-02-23T06:32:41.628Z,91743.81
2018-02-23T06:33:30.698Z,91744.31
2018-02-23T06:34:19.766Z,91740.14
2018-02-23T06:35:08.824Z,91746.27
2018-02-23T06:35:57.877Z,91742.89
2018-02-23T06:36:46.929Z,91746.62
2018-02-23T06:37:35.991Z,91748.05
2018-02-23T06:38:25.344Z,91744.13
2018-02-23T06:39:14.402Z,91746.53
2018-02-23T06:40:03.490Z,91749.10
2018-02-23T06:40:52.612Z,91747.59
2018-02-23T06:41:41.688Z,91748.38
2018-02-23T06:42:30.778Z,91749.18
2018-02-23T06:43:19.807Z,91744.65
2018-02-23T06:44:08.853Z,91748.30
2018-02-23T06:44:57.898Z,91744.20
2018-02-23T06:45:46.944Z,91745.63
2018-02-23T06:46:36.009Z,91751.59
2018-02-23T06:47:25.077Z,91747.76
2018-02-23T06:48:14.224Z,91755.14
2018-02-23T06:49:03.267Z,91749.89
2018-02-23T06:49:52.332Z,91753.00
2018-02-23T06:50:41.386Z,91754.70
2018-02-23T06:51:30.441Z,91756.66
2018-02-23T06:52:19.492Z,91753.00
2018-02-23T06:53:08.539Z,91753.98
2018-02-23T06:53:57.824Z,91757.08
2018-02-23T06:54:46.885Z,91757.17
2018-02-23T06:55:35.939Z,91757.70
2018-02-23T06:56:24.987Z,91749.34
2018-02-23T06:57:14.071Z,91755.56
2018-02-23T06:58:03.115Z,91763.20
2018-02-23T06:58:52.155Z,91756.63
2018-02-23T06:59:41.197Z,91760.17
2018-02-23T07:00:30.312Z,91758.22
2018-02-23T07:01:19.347Z,91766.22
2018-02-23T07:02:08.398Z,91767.02
2018-02-23T07:02:57.513Z,91757.51
2018-02-23T07:03:46.557Z,91765.07
2018-02-23T07:04:35.655Z,91769.70
2018-02-23T07:05:24.745Z,91763.22
2018-02-23T07:06:13.806Z,91769.09
2018-02-23T07:07:02.846Z,91763.58
2018-02-23T07:07:51.959Z,91768.64
2018-02-23T07:08:41.064Z,91770.06
2018-02-23T07:09:30.145Z,91765.53
2018-02-23T07:10:19.196Z,91763.48
2018-02-23T07:11:08.309Z,91762.95
2018-02-23T07:11:57.386Z,91761.80
2018-02-23T07:12:46.666Z,91768.02
2018-02-23T07:13:35.711Z,91772.64
2018-02-23T07:14:24.778Z,91770.94
2018-02-23T07:15:13.951Z,91776.45
2018-02-23T07:16:03.022Z,91772.09
2018-02-23T07:16:52.059Z,91767.34
2018-02-23T07:17:41.110Z,91774.12
2018-02-23T07:18:30.165Z,91770.66
2018-02-23T07:19:20.155Z,91773.20
2018-02-23T07:20:09.220Z,91767.95
2018-02-23T07:20:58.328Z,91775.33
2018-02-23T07:21:47.387Z,91771.25
2018-02-23T07:22:36.473Z,91767.86
2018-02-23T07:23:25.525Z,91770.53
2018-02-23T07:24:14.585Z,91767.33
2018-02-23T07:25:03.635Z,91770.48
2018-02-23T07:25:52.706Z,91775.46
2018-02-23T07:26:41.829Z,91775.20
2018-02-23T07:27:30.884Z,91772.80
2018-02-23T07:28:19.930Z,91773.86
2018-02-23T07:29:08.996Z,91775.28
2018-02-23T07:29:58.059Z,91777.11
2018-02-23T07:30:47.112Z,91773.55
2018-02-23T07:31:36.688Z,91776.67
2018-02-23T07:32:25.802Z,91768.56
2018-02-23T07:33:14.864Z,91769.63
2018-02-23T07:34:03.958Z,91771.77
2018-02-23T07:34:53.014Z,91768.48
2018-02-23T07:35:42.060Z,91779.63
2018-02-23T07:36:31.182Z,91775.46
2018-02-23T07:37:20.240Z,91773.38
2018-02-23T07:38:09.291Z,91777.61
2018-02-23T07:38:58.408Z,91775.75
2018-02-23T07:39:47.451Z,91778.25
2018-02-23T07:40:36.502Z,91776.47
2018-02-23T07:41:25.553Z,91775.39
2018-02-23T07:42:14.601Z,91781.34
2018-02-23T07:43:03.652Z,91779.75
2018-02-23T07:43:52.692Z,91783.05
2018-02-23T07:44:41.798Z,91777.27
2018-02-23T07:45:30.864Z,91771.44
2018-02-23T07:46:21.881Z,91778.08
2018-02-23T07:47:10.938Z,91773.45
2018-02-23T07:48:00.004Z,91777.20
2018-02-23T07:48:49.045Z,91777.47
2018-02-23T07:49:38.194Z,91775.70
2018-02-23T07:50:27.268Z,91774.88
2018-02-23T07:51:16.345Z,91777.28
2018-02-23T07:52:05.398Z,91773.02
2018-02-23T07:52:54.477Z,91782.43
2018-02-23T07:53:43.542Z,91774.16
2018-02-23T07:54:32.592Z,91774.16
2018-02-23T07:55:21.696Z,91774.69
2018-02-23T07:56:10.800Z,91775.40
2018-02-23T07:56:59.877Z,91779.84
2018-02-23T07:57:48.934Z,91776.55
2018-02-23T07:58:38.017Z,91772.45
2018-02-23T07:59:27.120Z,91774.85
2018-02-23T08:00:16.204Z,91777.06
2018-02-23T08:01:06.086Z,91774.58
2018-02-23T08:01:55.281Z,91775.65
2018-02-23T08:02:44.371Z,91776.53
2018-02-23T08:03:33.435Z,91772.09
2018-02-23T08:04:22.498Z,91776.44
2018-02-23T08:05:11.569Z,91776.13
2018-02-23T08:06:00.618Z,91768.92
2018-02-23T08:06:49.659Z,91767.41
2018-02-23T08:07:38.720Z,91769.27
2018-02-23T08:08:27.830Z,91770.06
2018-02-23T08:09:16.900Z,91764.62
2018-02-23T08:10:05.964Z,91757.39
2018-02-23T08:10:55.102Z,91765.03
2018-02-23T08:11:44.156Z,91770.55
2018-02-23T08:12:33.268Z,91768.06
2018-02-23T08:13:22.316Z,91765.68
2018-02-23T08:14:11.374Z,91769.22
2018-02-23T08:15:00.474Z,91767.16
2018-02-23T08:15:49.536Z,91768.77
2018-02-23T08:16:38.628Z,91771.89
2018-02-23T08:17:27.696Z,91768.87
2018-02-23T08:18:16.736Z,91763.43
2018-02-23T08:19:05.811Z,91767.36
2018-02-23T08:19:54.864Z,91766.55
2018-02-23T08:20:43.908Z,91764.98
2018-02-23T08:21:32.957Z,91767.90
2018-02-23T08:22:25.099Z,91771.53
2018-02-23T08:23:14.190Z,91770.23
2018-02-23T08:24:03.240Z,91769.89
2018-02-23T08:24:52.286Z,91769.52
2018-02-23T08:25:41.329Z,91767.90
2018-02-23T08:26:30.388Z,91770.36
2018-02-23T08:27:19.437Z,91774.56
2018-02-23T08:28:10.268Z,91768.33
2018-02-23T08:28:59.312Z,91767.38
2018-02-23T08:29:48.361Z,91769.49
2018-02-23T08:30:37.402Z,91768.05
2018-02-23T08:31:26.454Z,91769.78
2018-02-23T08:32:15.504Z,91773.59
2018-02-23T08:33:04.574Z,91770.45
2018-02-23T08:33:53.667Z,91770.70
2018-02-23T08:34:42.728Z,91773.88
2018-02-23T08:35:31.812Z,91775.86
2018-02-23T08:36:20.852Z,91773.81
2018-02-23T08:37:09.890Z,91776.36
2018-02-23T08:37:58.960Z,91773.42
2018-02-23T08:38:48.004Z,91772.30
2018-02-23T08:39:37.063Z,91775.67
2018-02-23T08:40:26.120Z,91775.39
2018-02-23T08:41:15.400Z,91772.81
2018-02-23T08:42:04.445Z,91773.86
2018-02-23T08:42:53.521Z,91780.27
2018-02-23T08:43:42.560Z,91772.95
2018-02-23T08:44:31.834Z,91773.52
2018-02-23T08:45:20.887Z,91771.88
2018-02-23T08:46:09.938Z,91778.53
2018-02-23T08:46:58.993Z,91773.28
2018-02-23T08:47:48.074Z,91769.88
2018-02-23T08:48:37.166Z,91769.95
2018-02-23T08:49:26.259Z,91774.31
2018-02-23T08:50:15.399Z,91769.61
2018-02-23T08:51:04.462Z,91771.13
2018-02-23T08:51:53.556Z,91773.84
2018-02-23T08:52:42.626Z,91768.47
2018-02-23T08:53:31.662Z,91766.47
2018-02-23T08:54:20.694Z,91766.87
2018-02-23T08:55:09.752Z,91766.59
2018-02-23T08:55:58.840Z,91772.83
2018-02-23T08:56:47.876Z,91768.64
2018-02-23T08:57:36.912Z,91773.50
2018-02-23T08:58:25.964Z,91772.22
2018-02-23T08:59:15.034Z,91772.97
2018-02-23T09:00:04.114Z,91768.33
2018-02-23T09:00:53.191Z,91774.77
2018-02-23T09:01:42.540Z,91770.37
2018-02-23T09:02:31.604Z,91772.42
2018-02-23T09:03:20.659Z,91768.17
2018-02-23T09:04:09.702Z,91766.28
2018-02-23T09:04:58.876Z,91770.13
2018-02-23T09:05:47.933Z,91768.22
2018-02-23T09:06:36.989Z,91771.38
2018-02-23T09:07:26.037Z,91765.58
2018-02-23T09:08:15.085Z,91770.19
2018-02-23T09:09:04.172Z,91764.30
2018-02-23T09:09:53.288Z,91773.11
2018-02-23T09:10:42.404Z,91767.84
2018-02-23T09:11:31.454Z,91767.09
2018-02-23T09:12:20.511Z,91764.95
2018-02-23T09:13:09.570Z,91769.46
2018-02-23T09:13:58.628Z,91765.50
2018-02-23T09:14:47.685Z,91765.64
2018-02-23T09:15:36.734Z,91766.43
2018-02-23T09:16:25.836Z,91762.13
2018-02-23T09:17:15.086Z,91756.58
2018-02-23T09:18:04.167Z,91763.10
2018-02-23T09:18:53.226Z,91764.19
2018-02-23T09:19:42.290Z,91758.82
2018-02-23T09:20:31.406Z,91761.87
2018-02-23T09:21:20.687Z,91761.47
2018-02-23T09:22:09.795Z,91761.66
2018-02-23T09:22:58.908Z,91755.73
2018-02-23T09:23:47.966Z,91761.70
2018-02-23T09:24:37.062Z,91756.36
2018-02-23T09:25:26.132Z,91751.55
2018-02-23T09:26:15.207Z,91755.10
2018-02-23T09:27:04.261Z,91756.38
2018-02-23T09:27:53.296Z,91755.17
2018-02-23T09:28:42.427Z,91749.48
2018-02-23T09:29:31.468Z,91748.58
2018-02-23T09:30:20.517Z,91749.02
2018-02-23T09:31:09.562Z,91743.45
2018-02-23T09:31:58.603Z,91748.77
2018-02-23T09:32:47.686Z,91749.80
2018-02-23T09:33:48.455Z,91752.72
2018-02-23T09:34:38.332Z,91748.51
2018-02-23T09:35:27.372Z,91749.38
2018-02-23T09:36:16.441Z,91743.91
2018-02-23T09:37:05.484Z,91751.74
2018-02-23T09:37:54.525Z,91752.92
2018-02-23T09:38:43.562Z,91749.23
2018-02-23T09:39:32.633Z,91751.63
2018-02-23T09:40:21.686Z,91751.94